sensor_id;sensor_type;location;lat;lon;timestamp;pressure;altitude;pressure_sealevel;temperature;humidity
68656;BME280;55638;51.122;13.606;2023-12-20T00:00:33;99755.88;;;5.45;59.85
68656;BME280;55638;51.122;13.606;2023-12-20T00:02:05;99761.34;;;5.44;59.92
68656;BME280;55638;51.122;13.606;2023-12-20T00:03:37;99765.84;;;5.43;59.86
68656;BME280;55638;51.122;13.606;2023-12-20T00:05:14;99759.72;;;5.41;59.71
68656;BME280;55638;51.122;13.606;2023-12-20T00:06:46;99755.25;;;5.42;59.92
68656;BME280;55638;51.122;13.606;2023-12-20T00:08:18;99759.72;;;5.41;60.02
68656;BME280;55638;51.122;13.606;2023-12-20T00:09:49;99760.78;;;5.39;59.93
68656;BME280;55638;51.122;13.606;2023-12-20T00:11:21;99759.09;;;5.38;59.82
68656;BME280;55638;51.122;13.606;2023-12-20T00:12:53;99758.25;;;5.37;59.75
68656;BME280;55638;51.122;13.606;2023-12-20T00:14:25;99746.69;;;5.37;59.89
68656;BME280;55638;51.122;13.606;2023-12-20T00:15:57;99758.34;;;5.36;59.86
68656;BME280;55638;51.122;13.606;2023-12-20T00:17:29;99739.84;;;5.33;59.72
68656;BME280;55638;51.122;13.606;2023-12-20T00:19:01;99738.13;;;5.32;59.81
68656;BME280;55638;51.122;13.606;2023-12-20T00:20:33;99739.09;;;5.31;60.06
68656;BME280;55638;51.122;13.606;2023-12-20T00:22:05;99747.97;;;5.31;59.78
68656;BME280;55638;51.122;13.606;2023-12-20T00:23:37;99739.19;;;5.29;60.01
68656;BME280;55638;51.122;13.606;2023-12-20T00:25:09;99743.00;;;5.25;59.84
68656;BME280;55638;51.122;13.606;2023-12-20T00:26:41;99740.34;;;5.25;60.04
68656;BME280;55638;51.122;13.606;2023-12-20T00:28:13;99741.31;;;5.24;60.21
68656;BME280;55638;51.122;13.606;2023-12-20T00:29:44;99748.44;;;5.23;60.05
68656;BME280;55638;51.122;13.606;2023-12-20T00:31:19;99738.72;;;5.22;60.07
68656;BME280;55638;51.122;13.606;2023-12-20T00:32:51;99745.97;;;5.20;60.02
68656;BME280;55638;51.122;13.606;2023-12-20T00:34:23;99742.47;;;5.20;59.79
68656;BME280;55638;51.122;13.606;2023-12-20T00:35:56;99744.41;;;5.18;59.85
68656;BME280;55638;51.122;13.606;2023-12-20T00:37:27;99731.97;;;5.17;59.94
68656;BME280;55638;51.122;13.606;2023-12-20T00:38:59;99734.78;;;5.15;59.92
68656;BME280;55638;51.122;13.606;2023-12-20T00:40:32;99734.78;;;5.15;59.72
68656;BME280;55638;51.122;13.606;2023-12-20T00:42:04;99734.00;;;5.13;59.97
68656;BME280;55638;51.122;13.606;2023-12-20T00:43:36;99730.59;;;5.11;60.00
68656;BME280;55638;51.122;13.606;2023-12-20T00:45:08;99732.38;;;5.11;60.16
68656;BME280;55638;51.122;13.606;2023-12-20T00:46:40;99732.50;;;5.09;60.06
68656;BME280;55638;51.122;13.606;2023-12-20T00:48:12;99730.81;;;5.08;60.18
68656;BME280;55638;51.122;13.606;2023-12-20T00:49:44;99716.69;;;5.06;60.19
68656;BME280;55638;51.122;13.606;2023-12-20T00:51:16;99724.69;;;5.06;60.08
68656;BME280;55638;51.122;13.606;2023-12-20T00:52:48;99721.19;;;5.05;60.00
68656;BME280;55638;51.122;13.606;2023-12-20T00:54:20;99718.59;;;5.04;60.01
68656;BME280;55638;51.122;13.606;2023-12-20T00:55:52;99725.75;;;5.03;60.17
68656;BME280;55638;51.122;13.606;2023-12-20T00:57:23;99714.34;;;5.01;60.32
68656;BME280;55638;51.122;13.606;2023-12-20T00:58:55;99715.19;;;5.02;60.21
68656;BME280;55638;51.122;13.606;2023-12-20T01:00:27;99714.34;;;5.01;60.29
68656;BME280;55638;51.122;13.606;2023-12-20T01:01:59;99711.75;;;5.00;60.26
68656;BME280;55638;51.122;13.606;2023-12-20T01:03:31;99713.56;;;4.99;60.16
68656;BME280;55638;51.122;13.606;2023-12-20T01:05:03;99713.69;;;4.98;60.35
68656;BME280;55638;51.122;13.606;2023-12-20T01:06:35;99708.34;;;4.98;60.21
68656;BME280;55638;51.122;13.606;2023-12-20T01:08:07;99711.03;;;4.98;60.41
68656;BME280;55638;51.122;13.606;2023-12-20T01:09:39;99706.63;;;4.97;60.23
68656;BME280;55638;51.122;13.606;2023-12-20T01:11:11;99699.59;;;4.96;60.34
68656;BME280;55638;51.122;13.606;2023-12-20T01:12:43;99704.91;;;4.96;60.37
68656;BME280;55638;51.122;13.606;2023-12-20T01:14:16;99700.44;;;4.96;60.38
68656;BME280;55638;51.122;13.606;2023-12-20T01:15:47;99698.72;;;4.95;60.34
68656;BME280;55638;51.122;13.606;2023-12-20T01:17:19;99700.56;;;4.95;60.29
68656;BME280;55638;51.122;13.606;2023-12-20T01:18:51;99694.44;;;4.93;60.42
68656;BME280;55638;51.122;13.606;2023-12-20T01:20:23;99698.81;;;4.94;60.38
68656;BME280;55638;51.122;13.606;2023-12-20T01:21:56;99704.16;;;4.94;60.13
68656;BME280;55638;51.122;13.606;2023-12-20T01:23:28;99698.09;;;4.92;60.45
68656;BME280;55638;51.122;13.606;2023-12-20T01:24:59;99690.06;;;4.92;60.37
68656;BME280;55638;51.122;13.606;2023-12-20T01:26:31;99693.81;;;4.89;60.37
68656;BME280;55638;51.122;13.606;2023-12-20T01:28:04;99695.63;;;4.89;60.41
68656;BME280;55638;51.122;13.606;2023-12-20T01:29:35;99683.22;;;4.88;60.21
68656;BME280;55638;51.122;13.606;2023-12-20T01:31:08;99689.31;;;4.90;60.24
68656;BME280;55638;51.122;13.606;2023-12-20T01:32:40;99683.22;;;4.88;60.15
68656;BME280;55638;51.122;13.606;2023-12-20T01:34:12;99676.16;;;4.87;60.37
68656;BME280;55638;51.122;13.606;2023-12-20T01:35:44;99681.50;;;4.87;60.06
68656;BME280;55638;51.122;13.606;2023-12-20T01:37:16;99681.63;;;4.85;60.30
68656;BME280;55638;51.122;13.606;2023-12-20T01:38:48;99675.31;;;4.86;60.26
68656;BME280;55638;51.122;13.606;2023-12-20T01:40:21;99679.03;;;4.83;60.17
68656;BME280;55638;51.122;13.606;2023-12-20T01:41:53;99673.69;;;4.83;60.21
68656;BME280;55638;51.122;13.606;2023-12-20T01:43:25;99675.63;;;4.81;60.19
68656;BME280;55638;51.122;13.606;2023-12-20T01:45:00;99676.56;;;4.80;60.31
68656;BME280;55638;51.122;13.606;2023-12-20T01:46:32;99671.22;;;4.80;60.13
68656;BME280;55638;51.122;13.606;2023-12-20T01:48:05;99665.16;;;4.78;60.28
68656;BME280;55638;51.122;13.606;2023-12-20T01:49:37;99671.44;;;4.77;60.41
68656;BME280;55638;51.122;13.606;2023-12-20T01:51:10;99669.75;;;4.76;60.19
68656;BME280;55638;51.122;13.606;2023-12-20T01:52:43;99667.91;;;4.77;60.35
68656;BME280;55638;51.122;13.606;2023-12-20T01:54:15;99670.72;;;4.75;60.16
68656;BME280;55638;51.122;13.606;2023-12-20T01:55:48;99672.50;;;4.75;60.24
68656;BME280;55638;51.122;13.606;2023-12-20T01:57:22;99664.50;;;4.75;60.30
68656;BME280;55638;51.122;13.606;2023-12-20T01:58:54;99666.31;;;4.74;60.11
68656;BME280;55638;51.122;13.606;2023-12-20T02:00:27;99666.44;;;4.73;60.13
68656;BME280;55638;51.122;13.606;2023-12-20T02:02:01;99669.19;;;4.71;60.26
68656;BME280;55638;51.122;13.606;2023-12-20T02:03:35;99667.47;;;4.70;60.24
68656;BME280;55638;51.122;13.606;2023-12-20T02:05:09;99669.19;;;4.71;60.27
68656;BME280;55638;51.122;13.606;2023-12-20T02:06:42;99663.97;;;4.70;60.43
68656;BME280;55638;51.122;13.606;2023-12-20T02:08:14;99666.63;;;4.70;60.31
68656;BME280;55638;51.122;13.606;2023-12-20T02:09:46;99663.13;;;4.69;60.51
68656;BME280;55638;51.122;13.606;2023-12-20T02:11:18;99650.69;;;4.68;60.24
68656;BME280;55638;51.122;13.606;2023-12-20T02:12:50;99650.81;;;4.67;60.31
68656;BME280;55638;51.122;13.606;2023-12-20T02:14:22;99651.66;;;4.67;60.33
68656;BME280;55638;51.122;13.606;2023-12-20T02:15:54;99655.31;;;4.66;60.44
68656;BME280;55638;51.122;13.606;2023-12-20T02:17:27;99650.81;;;4.67;60.40
68656;BME280;55638;51.122;13.606;2023-12-20T02:18:59;99656.28;;;4.65;60.45
68656;BME280;55638;51.122;13.606;2023-12-20T02:20:31;99649.19;;;4.64;60.32
68656;BME280;55638;51.122;13.606;2023-12-20T02:22:09;99650.16;;;4.63;60.51
68656;BME280;55638;51.122;13.606;2023-12-20T02:23:41;99658.19;;;4.63;60.65
68656;BME280;55638;51.122;13.606;2023-12-20T02:25:13;99646.66;;;4.63;60.63
68656;BME280;55638;51.122;13.606;2023-12-20T02:26:45;99652.94;;;4.62;60.52
68656;BME280;55638;51.122;13.606;2023-12-20T02:28:18;99651.16;;;4.62;60.64
68656;BME280;55638;51.122;13.606;2023-12-20T02:29:50;99643.13;;;4.62;60.62
68656;BME280;55638;51.122;13.606;2023-12-20T02:31:23;99655.72;;;4.60;60.78
68656;BME280;55638;51.122;13.606;2023-12-20T02:32:55;99656.47;;;4.62;60.59
68656;BME280;55638;51.122;13.606;2023-12-20T02:34:27;99657.34;;;4.63;60.68
68656;BME280;55638;51.122;13.606;2023-12-20T02:35:59;99648.47;;;4.62;60.55
68656;BME280;55638;51.122;13.606;2023-12-20T02:37:32;99652.00;;;4.63;60.42
68656;BME280;55638;51.122;13.606;2023-12-20T02:39:04;99652.94;;;4.62;60.50
68656;BME280;55638;51.122;13.606;2023-12-20T02:40:36;99639.69;;;4.60;60.52
68656;BME280;55638;51.122;13.606;2023-12-20T02:42:08;99644.06;;;4.61;60.60
68656;BME280;55638;51.122;13.606;2023-12-20T02:43:40;99638.00;;;4.59;60.44
68656;BME280;55638;51.122;13.606;2023-12-20T02:45:12;99640.66;;;4.59;60.44
68656;BME280;55638;51.122;13.606;2023-12-20T02:46:44;99638.84;;;4.59;60.46
68656;BME280;55638;51.122;13.606;2023-12-20T02:48:17;99639.78;;;4.58;60.59
68656;BME280;55638;51.122;13.606;2023-12-20T02:49:49;99653.13;;;4.58;60.58
68656;BME280;55638;51.122;13.606;2023-12-20T02:51:21;99646.94;;;4.58;60.57
68656;BME280;55638;51.122;13.606;2023-12-20T02:52:53;99644.28;;;4.58;60.54
68656;BME280;55638;51.122;13.606;2023-12-20T02:54:25;99642.47;;;4.58;60.71
68656;BME280;55638;51.122;13.606;2023-12-20T02:55:57;99636.25;;;4.58;60.70
68656;BME280;55638;51.122;13.606;2023-12-20T02:57:29;99641.59;;;4.58;60.74
68656;BME280;55638;51.122;13.606;2023-12-20T02:59:01;99641.59;;;4.58;60.80
68656;BME280;55638;51.122;13.606;2023-12-20T03:00:33;99643.34;;;4.59;60.70
68656;BME280;55638;51.122;13.606;2023-12-20T03:02:05;99650.59;;;4.57;60.60
68656;BME280;55638;51.122;13.606;2023-12-20T03:03:38;99647.06;;;4.56;60.72
68656;BME280;55638;51.122;13.606;2023-12-20T03:05:09;99643.44;;;4.57;60.78
68656;BME280;55638;51.122;13.606;2023-12-20T03:06:41;99639.91;;;4.57;60.72
68656;BME280;55638;51.122;13.606;2023-12-20T03:08:13;99639.06;;;4.56;60.64
68656;BME280;55638;51.122;13.606;2023-12-20T03:09:45;99635.41;;;4.57;60.72
68656;BME280;55638;51.122;13.606;2023-12-20T03:11:36;99641.72;;;4.56;60.88
68656;BME280;55638;51.122;13.606;2023-12-20T03:13:08;99637.22;;;4.57;60.74
68656;BME280;55638;51.122;13.606;2023-12-20T03:14:40;99637.22;;;4.57;60.70
68656;BME280;55638;51.122;13.606;2023-12-20T03:16:13;99637.34;;;4.55;60.87
68656;BME280;55638;51.122;13.606;2023-12-20T03:17:45;99642.69;;;4.55;60.70
68656;BME280;55638;51.122;13.606;2023-12-20T03:19:18;99637.34;;;4.55;60.91
68656;BME280;55638;51.122;13.606;2023-12-20T03:20:51;99642.69;;;4.55;60.91
68656;BME280;55638;51.122;13.606;2023-12-20T03:22:23;99627.53;;;4.56;60.70
68656;BME280;55638;51.122;13.606;2023-12-20T03:23:55;99631.13;;;4.55;61.00
68656;BME280;55638;51.122;13.606;2023-12-20T03:25:27;99626.56;;;4.57;60.93
68656;BME280;55638;51.122;13.606;2023-12-20T03:26:59;99624.00;;;4.55;60.99
68656;BME280;55638;51.122;13.606;2023-12-20T03:28:30;99622.19;;;4.56;60.80
68656;BME280;55638;51.122;13.606;2023-12-20T03:30:03;99615.13;;;4.55;60.96
68656;BME280;55638;51.122;13.606;2023-12-20T03:31:35;99625.78;;;4.55;61.03
68656;BME280;55638;51.122;13.606;2023-12-20T03:33:07;99620.47;;;4.55;61.01
68656;BME280;55638;51.122;13.606;2023-12-20T03:34:39;99614.28;;;4.54;61.03
68656;BME280;55638;51.122;13.606;2023-12-20T03:36:11;99614.28;;;4.54;60.97
68656;BME280;55638;51.122;13.606;2023-12-20T03:37:43;99616.00;;;4.55;61.06
68656;BME280;55638;51.122;13.606;2023-12-20T03:39:15;99610.66;;;4.55;60.98
68656;BME280;55638;51.122;13.606;2023-12-20T03:40:47;99616.00;;;4.55;61.12
68656;BME280;55638;51.122;13.606;2023-12-20T03:42:19;99614.19;;;4.56;60.82
68656;BME280;55638;51.122;13.606;2023-12-20T03:43:51;99608.84;;;4.56;61.00
68656;BME280;55638;51.122;13.606;2023-12-20T03:45:22;99611.50;;;4.56;61.04
68656;BME280;55638;51.122;13.606;2023-12-20T03:46:54;99607.03;;;4.56;60.87
68656;BME280;55638;51.122;13.606;2023-12-20T03:48:26;99609.69;;;4.56;60.88
68656;BME280;55638;51.122;13.606;2023-12-20T03:49:58;99607.03;;;4.56;60.98
68656;BME280;55638;51.122;13.606;2023-12-20T03:51:30;99608.84;;;4.56;61.00
68656;BME280;55638;51.122;13.606;2023-12-20T03:53:02;99614.19;;;4.56;61.20
68656;BME280;55638;51.122;13.606;2023-12-20T03:54:35;99616.84;;;4.56;61.17
68656;BME280;55638;51.122;13.606;2023-12-20T03:56:07;99615.88;;;4.57;61.09
68656;BME280;55638;51.122;13.606;2023-12-20T03:57:39;99613.22;;;4.57;60.95
68656;BME280;55638;51.122;13.606;2023-12-20T03:59:11;99608.72;;;4.57;60.96
68656;BME280;55638;51.122;13.606;2023-12-20T04:00:43;99610.53;;;4.57;60.82
68656;BME280;55638;51.122;13.606;2023-12-20T04:02:15;99613.22;;;4.57;61.05
68656;BME280;55638;51.122;13.606;2023-12-20T04:03:49;99615.03;;;4.56;61.10
68656;BME280;55638;51.122;13.606;2023-12-20T04:05:21;99603.50;;;4.56;60.88
68656;BME280;55638;51.122;13.606;2023-12-20T04:06:53;99614.19;;;4.56;61.01
68656;BME280;55638;51.122;13.606;2023-12-20T04:08:25;99610.66;;;4.55;61.07
68656;BME280;55638;51.122;13.606;2023-12-20T04:09:57;99610.66;;;4.55;61.04
68656;BME280;55638;51.122;13.606;2023-12-20T04:11:29;99611.50;;;4.56;60.96
68656;BME280;55638;51.122;13.606;2023-12-20T04:13:01;99620.38;;;4.56;61.06
68656;BME280;55638;51.122;13.606;2023-12-20T04:14:33;99612.44;;;4.55;61.15
68656;BME280;55638;51.122;13.606;2023-12-20T04:16:05;99608.94;;;4.54;61.07
68656;BME280;55638;51.122;13.606;2023-12-20T04:17:37;99608.94;;;4.54;61.01
68656;BME280;55638;51.122;13.606;2023-12-20T04:19:09;99612.44;;;4.55;61.08
68656;BME280;55638;51.122;13.606;2023-12-20T04:20:41;99619.59;;;4.54;61.16
68656;BME280;55638;51.122;13.606;2023-12-20T04:22:13;99610.66;;;4.55;61.03
68656;BME280;55638;51.122;13.606;2023-12-20T04:23:45;99612.44;;;4.55;60.92
68656;BME280;55638;51.122;13.606;2023-12-20T04:25:17;99602.75;;;4.54;61.11
68656;BME280;55638;51.122;13.606;2023-12-20T04:26:49;99606.25;;;4.54;61.22
68656;BME280;55638;51.122;13.606;2023-12-20T04:28:21;99612.56;;;4.53;61.13
68656;BME280;55638;51.122;13.606;2023-12-20T04:29:53;99618.75;;;4.54;61.28
68656;BME280;55638;51.122;13.606;2023-12-20T04:31:25;99613.41;;;4.54;61.13
68656;BME280;55638;51.122;13.606;2023-12-20T04:32:57;99610.88;;;4.52;61.28
68656;BME280;55638;51.122;13.606;2023-12-20T04:34:29;99609.97;;;4.52;61.41
68656;BME280;55638;51.122;13.606;2023-12-20T04:36:00;99616.22;;;4.52;61.32
68656;BME280;55638;51.122;13.606;2023-12-20T04:37:32;99611.72;;;4.53;61.22
68656;BME280;55638;51.122;13.606;2023-12-20T04:39:04;99613.53;;;4.52;61.20
68656;BME280;55638;51.122;13.606;2023-12-20T04:40:36;99618.97;;;4.51;61.37
68656;BME280;55638;51.122;13.606;2023-12-20T04:42:08;99609.97;;;4.52;61.31
68656;BME280;55638;51.122;13.606;2023-12-20T04:43:40;99615.25;;;4.53;61.20
68656;BME280;55638;51.122;13.606;2023-12-20T04:45:12;99617.91;;;4.53;61.30
68656;BME280;55638;51.122;13.606;2023-12-20T04:46:45;99617.91;;;4.53;61.46
68656;BME280;55638;51.122;13.606;2023-12-20T04:48:17;99618.75;;;4.54;61.46
68656;BME280;55638;51.122;13.606;2023-12-20T04:49:49;99617.78;;;4.55;61.34
68656;BME280;55638;51.122;13.606;2023-12-20T04:51:21;99617.78;;;4.55;61.34
68656;BME280;55638;51.122;13.606;2023-12-20T04:52:53;99621.34;;;4.55;61.27
68656;BME280;55638;51.122;13.606;2023-12-20T04:54:25;99619.59;;;4.54;61.25
68656;BME280;55638;51.122;13.606;2023-12-20T04:55:57;99612.38;;;4.56;61.25
68656;BME280;55638;51.122;13.606;2023-12-20T04:57:29;99622.19;;;4.56;61.19
68656;BME280;55638;51.122;13.606;2023-12-20T04:59:01;99621.34;;;4.55;61.38
68656;BME280;55638;51.122;13.606;2023-12-20T05:00:32;99618.75;;;4.54;61.48
68656;BME280;55638;51.122;13.606;2023-12-20T05:02:04;99620.47;;;4.55;61.29
68656;BME280;55638;51.122;13.606;2023-12-20T05:03:36;99619.59;;;4.54;61.32
68656;BME280;55638;51.122;13.606;2023-12-20T05:05:08;99612.44;;;4.55;61.56
68656;BME280;55638;51.122;13.606;2023-12-20T05:06:40;99623.13;;;4.55;61.46
68656;BME280;55638;51.122;13.606;2023-12-20T05:08:13;99623.13;;;4.55;61.63
68656;BME280;55638;51.122;13.606;2023-12-20T05:09:44;99628.47;;;4.55;61.46
68656;BME280;55638;51.122;13.606;2023-12-20T05:11:16;99629.34;;;4.55;61.64
68656;BME280;55638;51.122;13.606;2023-12-20T05:12:48;99624.84;;;4.56;61.58
68656;BME280;55638;51.122;13.606;2023-12-20T05:14:20;99624.84;;;4.56;61.72
68656;BME280;55638;51.122;13.606;2023-12-20T05:15:52;99623.88;;;4.57;61.67
68656;BME280;55638;51.122;13.606;2023-12-20T05:17:24;99629.34;;;4.55;61.69
68656;BME280;55638;51.122;13.606;2023-12-20T05:18:56;99634.56;;;4.57;61.61
68656;BME280;55638;51.122;13.606;2023-12-20T05:20:28;99629.22;;;4.57;61.67
68656;BME280;55638;51.122;13.606;2023-12-20T05:22:01;99636.38;;;4.56;61.71
68656;BME280;55638;51.122;13.606;2023-12-20T05:23:33;99628.38;;;4.56;61.59
68656;BME280;55638;51.122;13.606;2023-12-20T05:25:05;99636.25;;;4.58;61.54
68656;BME280;55638;51.122;13.606;2023-12-20T05:26:38;99639.78;;;4.58;61.56
68656;BME280;55638;51.122;13.606;2023-12-20T05:28:10;99638.94;;;4.58;61.61
68656;BME280;55638;51.122;13.606;2023-12-20T05:29:42;99631.03;;;4.56;61.70
68656;BME280;55638;51.122;13.606;2023-12-20T05:31:13;99637.22;;;4.57;61.65
68656;BME280;55638;51.122;13.606;2023-12-20T05:32:45;99635.34;;;4.59;61.54
68656;BME280;55638;51.122;13.606;2023-12-20T05:34:17;99633.59;;;4.58;61.73
68656;BME280;55638;51.122;13.606;2023-12-20T05:35:49;99638.00;;;4.59;61.75
68656;BME280;55638;51.122;13.606;2023-12-20T05:37:21;99637.13;;;4.58;61.73
68656;BME280;55638;51.122;13.606;2023-12-20T05:38:54;99638.00;;;4.59;61.74
68656;BME280;55638;51.122;13.606;2023-12-20T05:40:25;99636.25;;;4.58;61.74
68656;BME280;55638;51.122;13.606;2023-12-20T05:41:57;99638.00;;;4.59;61.86
68656;BME280;55638;51.122;13.606;2023-12-20T05:43:29;99633.41;;;4.61;61.68
68656;BME280;55638;51.122;13.606;2023-12-20T05:45:01;99641.53;;;4.59;61.82
68656;BME280;55638;51.122;13.606;2023-12-20T05:46:33;99645.03;;;4.60;61.91
68656;BME280;55638;51.122;13.606;2023-12-20T05:48:05;99649.41;;;4.61;61.77
68656;BME280;55638;51.122;13.606;2023-12-20T05:49:37;99653.81;;;4.62;61.90
68656;BME280;55638;51.122;13.606;2023-12-20T05:51:12;99653.81;;;4.62;62.15
68656;BME280;55638;51.122;13.606;2023-12-20T05:52:44;99660.84;;;4.63;61.98
68656;BME280;55638;51.122;13.606;2023-12-20T05:54:16;99658.94;;;4.65;62.03
68656;BME280;55638;51.122;13.606;2023-12-20T05:55:48;99667.03;;;4.64;62.04
68656;BME280;55638;51.122;13.606;2023-12-20T05:57:20;99661.63;;;4.65;61.98
68656;BME280;55638;51.122;13.606;2023-12-20T05:58:52;99664.28;;;4.65;61.85
68656;BME280;55638;51.122;13.606;2023-12-20T06:00:24;99667.03;;;4.64;62.01
68656;BME280;55638;51.122;13.606;2023-12-20T06:01:56;99666.94;;;4.65;62.03
68656;BME280;55638;51.122;13.606;2023-12-20T06:03:28;99671.31;;;4.66;61.98
68656;BME280;55638;51.122;13.606;2023-12-20T06:05:00;99666.00;;;4.66;62.00
68656;BME280;55638;51.122;13.606;2023-12-20T06:06:33;99679.34;;;4.66;62.17
68656;BME280;55638;51.122;13.606;2023-12-20T06:08:05;99678.28;;;4.69;61.91
68656;BME280;55638;51.122;13.606;2023-12-20T06:09:37;99669.38;;;4.68;61.93
68656;BME280;55638;51.122;13.606;2023-12-20T06:11:09;99666.63;;;4.70;61.84
68656;BME280;55638;51.122;13.606;2023-12-20T06:12:41;99662.13;;;4.70;61.87
68656;BME280;55638;51.122;13.606;2023-12-20T06:14:13;99663.84;;;4.71;62.03
68656;BME280;55638;51.122;13.606;2023-12-20T06:15:45;99657.66;;;4.71;62.05
68656;BME280;55638;51.122;13.606;2023-12-20T06:17:17;99663.84;;;4.71;62.09
68656;BME280;55638;51.122;13.606;2023-12-20T06:18:49;99668.25;;;4.72;61.92
68656;BME280;55638;51.122;13.606;2023-12-20T06:20:21;99668.25;;;4.72;61.95
68656;BME280;55638;51.122;13.606;2023-12-20T06:21:53;99674.22;;;4.76;62.02
68656;BME280;55638;51.122;13.606;2023-12-20T06:23:25;99672.63;;;4.73;62.16
68656;BME280;55638;51.122;13.606;2023-12-20T06:24:58;99668.97;;;4.74;62.12
68656;BME280;55638;51.122;13.606;2023-12-20T06:26:30;99676.06;;;4.75;62.10
68656;BME280;55638;51.122;13.606;2023-12-20T06:28:02;99675.09;;;4.76;61.94
68656;BME280;55638;51.122;13.606;2023-12-20T06:29:34;99677.75;;;4.76;61.96
68656;BME280;55638;51.122;13.606;2023-12-20T06:31:06;99680.41;;;4.76;62.21
68656;BME280;55638;51.122;13.606;2023-12-20T06:32:38;99686.53;;;4.78;62.15
68656;BME280;55638;51.122;13.606;2023-12-20T06:34:11;99691.88;;;4.78;62.16
68656;BME280;55638;51.122;13.606;2023-12-20T06:35:43;99690.91;;;4.79;62.02
68656;BME280;55638;51.122;13.606;2023-12-20T06:37:15;99694.34;;;4.81;62.04
68656;BME280;55638;51.122;13.606;2023-12-20T06:38:47;99691.75;;;4.80;62.07
68656;BME280;55638;51.122;13.606;2023-12-20T06:40:19;99689.94;;;4.80;61.84
68656;BME280;55638;51.122;13.606;2023-12-20T06:41:50;99698.91;;;4.79;61.90
68656;BME280;55638;51.122;13.606;2023-12-20T06:43:23;99701.47;;;4.81;61.82
68656;BME280;55638;51.122;13.606;2023-12-20T06:45:14;99703.28;;;4.80;61.59
68656;BME280;55638;51.122;13.606;2023-12-20T06:46:45;99697.09;;;4.80;61.84
68656;BME280;55638;51.122;13.606;2023-12-20T06:48:17;99699.88;;;4.78;61.92
68656;BME280;55638;51.122;13.606;2023-12-20T06:49:51;99700.81;;;4.77;61.86
68656;BME280;55638;51.122;13.606;2023-12-20T06:51:23;99712.34;;;4.78;61.67
68656;BME280;55638;51.122;13.606;2023-12-20T06:52:57;99709.78;;;4.76;61.92
68656;BME280;55638;51.122;13.606;2023-12-20T06:54:29;99713.44;;;4.75;61.92
68656;BME280;55638;51.122;13.606;2023-12-20T06:56:00;99721.53;;;4.74;61.74
68656;BME280;55638;51.122;13.606;2023-12-20T06:57:32;99719.72;;;4.74;61.84
68656;BME280;55638;51.122;13.606;2023-12-20T06:59:04;99725.16;;;4.73;61.94
68656;BME280;55638;51.122;13.606;2023-12-20T07:00:36;99718.00;;;4.73;62.04
68656;BME280;55638;51.122;13.606;2023-12-20T07:02:08;99713.63;;;4.72;61.83
68656;BME280;55638;51.122;13.606;2023-12-20T07:03:46;99717.25;;;4.71;62.09
68656;BME280;55638;51.122;13.606;2023-12-20T07:05:18;99712.88;;;4.70;62.12
68656;BME280;55638;51.122;13.606;2023-12-20T07:06:51;99708.38;;;4.71;61.99
68656;BME280;55638;51.122;13.606;2023-12-20T07:08:25;99702.31;;;4.69;62.12
68656;BME280;55638;51.122;13.606;2023-12-20T07:09:57;99709.44;;;4.68;62.25
68656;BME280;55638;51.122;13.606;2023-12-20T07:11:29;99706.75;;;4.68;62.13
68656;BME280;55638;51.122;13.606;2023-12-20T07:13:01;99713.72;;;4.71;62.25
68656;BME280;55638;51.122;13.606;2023-12-20T07:14:33;99704.09;;;4.68;62.31
68656;BME280;55638;51.122;13.606;2023-12-20T07:16:05;99710.41;;;4.67;62.46
68656;BME280;55638;51.122;13.606;2023-12-20T07:17:37;99717.44;;;4.68;62.38
68656;BME280;55638;51.122;13.606;2023-12-20T07:19:09;99712.09;;;4.68;62.68
68656;BME280;55638;51.122;13.606;2023-12-20T07:20:42;99721.00;;;4.69;62.76
68656;BME280;55638;51.122;13.606;2023-12-20T07:22:14;99718.22;;;4.70;62.75
68656;BME280;55638;51.122;13.606;2023-12-20T07:23:46;99713.72;;;4.71;62.75
68656;BME280;55638;51.122;13.606;2023-12-20T07:25:18;99722.59;;;4.71;62.73
68656;BME280;55638;51.122;13.606;2023-12-20T07:26:52;99718.97;;;4.72;62.56
68656;BME280;55638;51.122;13.606;2023-12-20T07:28:23;99713.63;;;4.72;62.50
68656;BME280;55638;51.122;13.606;2023-12-20T07:29:56;99717.03;;;4.74;62.50
68656;BME280;55638;51.122;13.606;2023-12-20T07:31:28;99717.03;;;4.74;62.35
68656;BME280;55638;51.122;13.606;2023-12-20T07:33:00;99719.72;;;4.74;62.48
68656;BME280;55638;51.122;13.606;2023-12-20T07:34:33;99714.38;;;4.74;62.46
68656;BME280;55638;51.122;13.606;2023-12-20T07:36:08;99719.72;;;4.74;62.68
68656;BME280;55638;51.122;13.606;2023-12-20T07:37:40;99720.47;;;4.76;62.52
68656;BME280;55638;51.122;13.606;2023-12-20T07:39:12;99713.44;;;4.75;62.53
68656;BME280;55638;51.122;13.606;2023-12-20T07:40:44;99715.13;;;4.76;62.38
68656;BME280;55638;51.122;13.606;2023-12-20T07:42:16;99721.31;;;4.77;62.54
68656;BME280;55638;51.122;13.606;2023-12-20T07:43:48;99715.00;;;4.78;62.34
68656;BME280;55638;51.122;13.606;2023-12-20T07:45:21;99707.00;;;4.78;62.49
68656;BME280;55638;51.122;13.606;2023-12-20T07:46:53;99705.22;;;4.78;62.21
68656;BME280;55638;51.122;13.606;2023-12-20T07:48:25;99698.06;;;4.79;62.07
68656;BME280;55638;51.122;13.606;2023-12-20T07:49:56;99695.47;;;4.77;62.04
68656;BME280;55638;51.122;13.606;2023-12-20T07:51:29;99702.63;;;4.77;62.09
68656;BME280;55638;51.122;13.606;2023-12-20T07:53:01;99705.50;;;4.74;62.04
68656;BME280;55638;51.122;13.606;2023-12-20T07:54:33;99702.09;;;4.72;62.00
68656;BME280;55638;51.122;13.606;2023-12-20T07:56:18;99703.16;;;4.69;61.93
68656;BME280;55638;51.122;13.606;2023-12-20T07:57:50;99709.44;;;4.68;61.66
68656;BME280;55638;51.122;13.606;2023-12-20T07:59:22;99707.94;;;4.64;61.53
68656;BME280;55638;51.122;13.606;2023-12-20T08:01:03;99710.91;;;4.59;61.55
68656;BME280;55638;51.122;13.606;2023-12-20T08:02:35;99700.44;;;4.56;61.34
68656;BME280;55638;51.122;13.606;2023-12-20T08:04:07;99708.66;;;4.53;61.55
68656;BME280;55638;51.122;13.606;2023-12-20T08:05:39;99711.63;;;4.49;61.65
68656;BME280;55638;51.122;13.606;2023-12-20T08:07:13;99706.50;;;4.46;61.63
68656;BME280;55638;51.122;13.606;2023-12-20T08:08:46;99711.16;;;4.42;61.92